sensor_id;sensor_type;location;lat;lon;timestamp;pressure;altitude;pressure_sealevel;temperature;humidity
30819;BME280;17546;42.674;23.284;2022-07-18T00:00:43;95459.69;;;28.10;27.89
30819;BME280;17546;42.674;23.284;2022-07-18T00:03:09;95456.97;;;27.82;27.81
30819;BME280;17546;42.674;23.284;2022-07-18T00:05:34;95447.50;;;27.70;28.20
30819;BME280;17546;42.674;23.284;2022-07-18T00:07:59;95460.00;;;27.94;27.93
30819;BME280;17546;42.674;23.284;2022-07-18T00:10:25;95461.50;;;28.05;27.90
30819;BME280;17546;42.674;23.284;2022-07-18T00:12:50;95458.97;;;28.09;28.20
30819;BME280;17546;42.674;23.284;2022-07-18T00:15:16;95461.81;;;28.09;27.54
30819;BME280;17546;42.674;23.284;2022-07-18T00:17:41;95461.50;;;28.15;28.05
30819;BME280;17546;42.674;23.284;2022-07-18T00:20:08;95457.41;;;27.89;27.80
30819;BME280;17546;42.674;23.284;2022-07-18T00:22:35;95464.16;;;27.93;27.43
30819;BME280;17546;42.674;23.284;2022-07-18T00:25:00;95456.56;;;27.96;27.64
30819;BME280;17546;42.674;23.284;2022-07-18T00:27:26;95452.28;;;27.77;27.35
30819;BME280;17546;42.674;23.284;2022-07-18T00:29:51;95449.50;;;27.87;27.16
30819;BME280;17546;42.674;23.284;2022-07-18T00:32:16;95451.84;;;27.81;27.35
30819;BME280;17546;42.674;23.284;2022-07-18T00:34:42;95453.06;;;27.31;27.26
30819;BME280;17546;42.674;23.284;2022-07-18T00:37:07;95457.59;;;27.34;27.12
30819;BME280;17546;42.674;23.284;2022-07-18T00:39:33;95452.78;;;27.37;27.32
30819;BME280;17546;42.674;23.284;2022-07-18T00:41:58;95452.63;;;27.35;27.52
30819;BME280;17546;42.674;23.284;2022-07-18T00:44:26;95455.88;;;27.22;27.63
30819;BME280;17546;42.674;23.284;2022-07-18T00:46:58;95450.06;;;27.29;27.35
30819;BME280;17546;42.674;23.284;2022-07-18T00:49:24;95458.97;;;27.43;27.80
30819;BME280;17546;42.674;23.284;2022-07-18T00:51:51;95453.13;;;27.51;27.53
30819;BME280;17546;42.674;23.284;2022-07-18T00:54:17;95452.56;;;27.62;27.53
30819;BME280;17546;42.674;23.284;2022-07-18T00:56:44;95461.41;;;27.66;27.01
30819;BME280;17546;42.674;23.284;2022-07-18T00:59:10;95460.63;;;27.56;26.50
30819;BME280;17546;42.674;23.284;2022-07-18T01:01:44;95463.34;;;27.54;27.37
30819;BME280;17546;42.674;23.284;2022-07-18T01:04:21;95457.59;;;27.44;26.68
30819;BME280;17546;42.674;23.284;2022-07-18T01:06:48;95465.31;;;27.24;26.93
30819;BME280;17546;42.674;23.284;2022-07-18T01:09:16;95462.13;;;27.20;26.75
30819;BME280;17546;42.674;23.284;2022-07-18T01:11:46;95462.66;;;26.99;26.89
30819;BME280;17546;42.674;23.284;2022-07-18T01:14:12;95455.03;;;26.74;26.74
30819;BME280;17546;42.674;23.284;2022-07-18T01:16:38;95455.25;;;26.42;27.39
30819;BME280;17546;42.674;23.284;2022-07-18T01:19:04;95446.03;;;26.68;27.06
30819;BME280;17546;42.674;23.284;2022-07-18T01:21:31;95458.63;;;26.75;26.99
30819;BME280;17546;42.674;23.284;2022-07-18T01:23:57;95454.59;;;26.78;27.27
30819;BME280;17546;42.674;23.284;2022-07-18T01:26:23;95460.47;;;26.90;27.02
30819;BME280;17546;42.674;23.284;2022-07-18T01:28:48;95453.56;;;26.83;26.60
30819;BME280;17546;42.674;23.284;2022-07-18T01:31:14;95451.44;;;26.74;26.92
30819;BME280;17546;42.674;23.284;2022-07-18T01:33:40;95454.16;;;26.37;27.01
30819;BME280;17546;42.674;23.284;2022-07-18T01:36:06;95453.84;;;26.15;27.59
30819;BME280;17546;42.674;23.284;2022-07-18T01:38:33;95444.72;;;26.17;27.54
30819;BME280;17546;42.674;23.284;2022-07-18T01:40:59;95455.44;;;26.26;27.65
30819;BME280;17546;42.674;23.284;2022-07-18T01:43:26;95453.34;;;26.27;27.44
30819;BME280;17546;42.674;23.284;2022-07-18T01:45:53;95443.28;;;26.26;27.43
30819;BME280;17546;42.674;23.284;2022-07-18T01:48:19;95457.00;;;26.37;27.73
30819;BME280;17546;42.674;23.284;2022-07-18T01:50:45;95447.66;;;26.27;27.47
30819;BME280;17546;42.674;23.284;2022-07-18T01:53:11;95439.72;;;26.25;27.61
30819;BME280;17546;42.674;23.284;2022-07-18T01:55:37;95434.72;;;26.16;27.79
30819;BME280;17546;42.674;23.284;2022-07-18T01:58:02;95431.03;;;26.23;27.49
30819;BME280;17546;42.674;23.284;2022-07-18T02:00:28;95428.38;;;26.08;27.31
30819;BME280;17546;42.674;23.284;2022-07-18T02:02:54;95432.44;;;26.32;27.34
30819;BME280;17546;42.674;23.284;2022-07-18T02:05:19;95435.25;;;26.49;27.46
30819;BME280;17546;42.674;23.284;2022-07-18T02:07:45;95441.34;;;26.63;26.97
30819;BME280;17546;42.674;23.284;2022-07-18T02:10:17;95441.22;;;26.44;26.87
30819;BME280;17546;42.674;23.284;2022-07-18T02:12:43;95436.53;;;26.38;26.96
30819;BME280;17546;42.674;23.284;2022-07-18T02:15:10;95444.47;;;26.40;26.55
30819;BME280;17546;42.674;23.284;2022-07-18T02:17:36;95445.44;;;26.52;27.14
30819;BME280;17546;42.674;23.284;2022-07-18T02:20:04;95449.69;;;26.61;27.17
30819;BME280;17546;42.674;23.284;2022-07-18T02:22:30;95443.59;;;26.65;26.98
30819;BME280;17546;42.674;23.284;2022-07-18T02:24:55;95449.63;;;26.51;26.60
30819;BME280;17546;42.674;23.284;2022-07-18T02:27:20;95451.06;;;26.43;26.18
30819;BME280;17546;42.674;23.284;2022-07-18T02:29:46;95457.09;;;25.94;26.49
30819;BME280;17546;42.674;23.284;2022-07-18T02:32:12;95443.00;;;25.62;26.83
30819;BME280;17546;42.674;23.284;2022-07-18T02:34:37;95445.25;;;25.46;26.80
30819;BME280;17546;42.674;23.284;2022-07-18T02:37:03;95455.53;;;25.59;26.82
30819;BME280;17546;42.674;23.284;2022-07-18T02:39:37;95454.84;;;25.50;27.00
30819;BME280;17546;42.674;23.284;2022-07-18T02:42:04;95462.56;;;25.75;26.88
30819;BME280;17546;42.674;23.284;2022-07-18T02:44:30;95481.88;;;25.94;27.19
30819;BME280;17546;42.674;23.284;2022-07-18T02:46:55;95478.72;;;26.07;27.01
30819;BME280;17546;42.674;23.284;2022-07-18T02:49:21;95480.72;;;26.14;27.15
30819;BME280;17546;42.674;23.284;2022-07-18T02:52:01;95475.13;;;26.07;26.65
30819;BME280;17546;42.674;23.284;2022-07-18T02:54:28;95480.66;;;26.05;26.83
30819;BME280;17546;42.674;23.284;2022-07-18T02:56:54;95483.22;;;26.10;26.32
30819;BME280;17546;42.674;23.284;2022-07-18T02:59:19;95437.81;;;25.93;26.52
30819;BME280;17546;42.674;23.284;2022-07-18T03:01:45;95474.63;;;26.18;26.54
30819;BME280;17546;42.674;23.284;2022-07-18T03:04:11;95481.50;;;26.15;26.56
30819;BME280;17546;42.674;23.284;2022-07-18T03:06:37;95486.91;;;26.21;25.54
30819;BME280;17546;42.674;23.284;2022-07-18T03:09:07;95478.88;;;26.09;25.76
30819;BME280;17546;42.674;23.284;2022-07-18T03:11:33;95486.91;;;26.21;25.96
30819;BME280;17546;42.674;23.284;2022-07-18T03:13:58;95488.06;;;26.35;26.25
30819;BME280;17546;42.674;23.284;2022-07-18T03:16:24;95490.41;;;26.29;26.90
30819;BME280;17546;42.674;23.284;2022-07-18T03:18:50;95494.34;;;26.33;26.77
30819;BME280;17546;42.674;23.284;2022-07-18T03:21:15;95485.06;;;26.33;26.47
30819;BME280;17546;42.674;23.284;2022-07-18T03:23:41;95488.41;;;26.22;25.89
30819;BME280;17546;42.674;23.284;2022-07-18T03:26:06;95485.41;;;26.02;26.23
30819;BME280;17546;42.674;23.284;2022-07-18T03:28:32;95481.00;;;25.84;26.55
30819;BME280;17546;42.674;23.284;2022-07-18T03:30:57;95492.09;;;25.72;26.37
30819;BME280;17546;42.674;23.284;2022-07-18T03:33:32;95486.66;;;25.66;26.71
30819;BME280;17546;42.674;23.284;2022-07-18T03:35:58;95478.75;;;25.40;27.04
30819;BME280;17546;42.674;23.284;2022-07-18T03:38:23;95477.56;;;25.25;26.69
30819;BME280;17546;42.674;23.284;2022-07-18T03:40:48;95478.13;;;25.24;26.70
30819;BME280;17546;42.674;23.284;2022-07-18T03:43:14;95478.94;;;25.09;26.84
30819;BME280;17546;42.674;23.284;2022-07-18T03:45:40;95480.22;;;24.90;27.09
30819;BME280;17546;42.674;23.284;2022-07-18T03:48:05;95489.34;;;24.81;27.16
30819;BME280;17546;42.674;23.284;2022-07-18T03:50:31;95478.09;;;24.66;27.55
30819;BME280;17546;42.674;23.284;2022-07-18T03:52:56;95484.28;;;24.72;27.12
30819;BME280;17546;42.674;23.284;2022-07-18T03:55:22;95480.34;;;24.67;27.20
30819;BME280;17546;42.674;23.284;2022-07-18T03:57:48;95490.06;;;24.82;27.26
30819;BME280;17546;42.674;23.284;2022-07-18T04:00:14;95479.28;;;24.88;27.21
30819;BME280;17546;42.674;23.284;2022-07-18T04:02:40;95485.47;;;24.61;27.06
30819;BME280;17546;42.674;23.284;2022-07-18T04:05:07;95485.00;;;24.32;27.52
30819;BME280;17546;42.674;23.284;2022-07-18T04:07:32;95491.56;;;24.50;27.57
30819;BME280;17546;42.674;23.284;2022-07-18T04:09:58;95486.09;;;24.52;27.28
30819;BME280;17546;42.674;23.284;2022-07-18T04:12:23;95481.00;;;24.83;27.43
30819;BME280;17546;42.674;23.284;2022-07-18T04:14:49;95495.16;;;25.16;27.49
30819;BME280;17546;42.674;23.284;2022-07-18T04:17:14;95481.53;;;25.22;27.16
30819;BME280;17546;42.674;23.284;2022-07-18T04:19:40;95486.59;;;24.99;26.96
30819;BME280;17546;42.674;23.284;2022-07-18T04:22:05;95498.28;;;25.03;26.81
30819;BME280;17546;42.674;23.284;2022-07-18T04:24:30;95498.97;;;25.11;26.93
30819;BME280;17546;42.674;23.284;2022-07-18T04:26:56;95485.31;;;25.25;27.32
30819;BME280;17546;42.674;23.284;2022-07-18T04:29:21;95492.84;;;25.22;27.30
30819;BME280;17546;42.674;23.284;2022-07-18T04:31:47;95494.78;;;25.45;26.97
30819;BME280;17546;42.674;23.284;2022-07-18T04:34:12;95486.13;;;25.43;27.37
30819;BME280;17546;42.674;23.284;2022-07-18T04:36:37;95486.00;;;25.58;27.24
30819;BME280;17546;42.674;23.284;2022-07-18T04:39:03;95476.81;;;25.67;27.52
30819;BME280;17546;42.674;23.284;2022-07-18T04:41:28;95491.19;;;25.69;27.04
30819;BME280;17546;42.674;23.284;2022-07-18T04:43:54;95482.41;;;25.32;27.37
30819;BME280;17546;42.674;23.284;2022-07-18T04:46:19;95475.97;;;25.57;27.35
30819;BME280;17546;42.674;23.284;2022-07-18T04:48:46;95483.00;;;25.73;27.37
30819;BME280;17546;42.674;23.284;2022-07-18T04:51:15;95478.66;;;25.97;27.30
30819;BME280;17546;42.674;23.284;2022-07-18T04:53:40;95477.88;;;26.14;27.08
30819;BME280;17546;42.674;23.284;2022-07-18T04:56:06;95477.72;;;26.30;26.31
30819;BME280;17546;42.674;23.284;2022-07-18T04:58:31;95478.00;;;25.82;26.82
30819;BME280;17546;42.674;23.284;2022-07-18T05:00:56;95478.59;;;25.80;26.69
30819;BME280;17546;42.674;23.284;2022-07-18T05:03:22;95474.63;;;26.01;26.71
30819;BME280;17546;42.674;23.284;2022-07-18T05:05:48;95476.38;;;25.96;26.31
30819;BME280;17546;42.674;23.284;2022-07-18T05:08:13;95485.25;;;26.17;26.30
30819;BME280;17546;42.674;23.284;2022-07-18T05:10:39;95474.72;;;25.93;26.06
30819;BME280;17546;42.674;23.284;2022-07-18T05:13:05;95476.28;;;26.04;25.96
30819;BME280;17546;42.674;23.284;2022-07-18T05:15:30;95483.16;;;26.01;25.24
30819;BME280;17546;42.674;23.284;2022-07-18T05:17:56;95478.22;;;26.18;25.27
30819;BME280;17546;42.674;23.284;2022-07-18T05:20:23;95475.13;;;26.42;25.36
30819;BME280;17546;42.674;23.284;2022-07-18T05:22:49;95469.53;;;26.34;25.00
30819;BME280;17546;42.674;23.284;2022-07-18T05:25:17;95469.03;;;26.28;25.15
30819;BME280;17546;42.674;23.284;2022-07-18T05:27:43;95474.97;;;26.57;25.43
30819;BME280;17546;42.674;23.284;2022-07-18T05:30:11;95486.72;;;26.18;25.55
30819;BME280;17546;42.674;23.284;2022-07-18T05:32:38;95481.38;;;26.23;25.72
30819;BME280;17546;42.674;23.284;2022-07-18T05:35:04;95479.38;;;26.50;25.28
30819;BME280;17546;42.674;23.284;2022-07-18T05:37:31;95485.59;;;26.22;24.90
30819;BME280;17546;42.674;23.284;2022-07-18T05:39:56;95481.38;;;26.40;24.96
30819;BME280;17546;42.674;23.284;2022-07-18T05:42:22;95485.88;;;26.43;24.76
30819;BME280;17546;42.674;23.284;2022-07-18T05:44:50;95476.84;;;26.54;24.59
30819;BME280;17546;42.674;23.284;2022-07-18T05:47:16;95496.16;;;26.56;24.66
30819;BME280;17546;42.674;23.284;2022-07-18T05:49:41;95495.09;;;26.16;24.96
30819;BME280;17546;42.674;23.284;2022-07-18T05:52:07;95490.66;;;26.23;24.66
30819;BME280;17546;42.674;23.284;2022-07-18T05:54:32;95493.31;;;25.86;25.24
30819;BME280;17546;42.674;23.284;2022-07-18T05:56:58;95488.56;;;25.89;25.38
30819;BME280;17546;42.674;23.284;2022-07-18T05:59:23;95484.56;;;26.44;25.00
30819;BME280;17546;42.674;23.284;2022-07-18T06:01:49;95490.72;;;26.68;24.89
30819;BME280;17546;42.674;23.284;2022-07-18T06:04:14;95500.16;;;26.53;25.19
30819;BME280;17546;42.674;23.284;2022-07-18T06:06:41;95495.56;;;26.75;25.06
30819;BME280;17546;42.674;23.284;2022-07-18T06:09:07;95488.03;;;26.70;24.88
30819;BME280;17546;42.674;23.284;2022-07-18T06:11:34;95494.00;;;26.12;24.14
30819;BME280;17546;42.674;23.284;2022-07-18T06:13:59;95481.47;;;25.30;24.94
30819;BME280;17546;42.674;23.284;2022-07-18T06:16:27;95489.34;;;26.59;24.07
30819;BME280;17546;42.674;23.284;2022-07-18T06:18:52;95490.47;;;27.00;24.75
30819;BME280;17546;42.674;23.284;2022-07-18T06:21:18;95489.88;;;27.29;24.37
30819;BME280;17546;42.674;23.284;2022-07-18T06:23:43;95491.41;;;27.30;24.06
30819;BME280;17546;42.674;23.284;2022-07-18T06:26:09;95478.50;;;27.29;22.87
30819;BME280;17546;42.674;23.284;2022-07-18T06:28:34;95486.63;;;27.42;22.09
30819;BME280;17546;42.674;23.284;2022-07-18T06:31:00;95486.13;;;27.73;21.91
30819;BME280;17546;42.674;23.284;2022-07-18T06:33:26;95478.56;;;27.86;21.57
30819;BME280;17546;42.674;23.284;2022-07-18T06:35:51;95473.34;;;28.11;22.42
30819;BME280;17546;42.674;23.284;2022-07-18T06:38:17;95484.28;;;28.63;21.59
30819;BME280;17546;42.674;23.284;2022-07-18T06:40:43;95478.72;;;28.85;22.37
30819;BME280;17546;42.674;23.284;2022-07-18T06:43:09;95480.03;;;29.13;22.12
30819;BME280;17546;42.674;23.284;2022-07-18T06:45:34;95480.13;;;29.25;20.96
30819;BME280;17546;42.674;23.284;2022-07-18T06:48:00;95473.41;;;29.52;20.62
30819;BME280;17546;42.674;23.284;2022-07-18T06:50:25;95472.19;;;29.55;20.49
30819;BME280;17546;42.674;23.284;2022-07-18T06:52:51;95470.28;;;29.79;20.65
30819;BME280;17546;42.674;23.284;2022-07-18T06:55:17;95475.31;;;30.12;20.48
30819;BME280;17546;42.674;23.284;2022-07-18T06:57:44;95471.88;;;30.35;21.25
30819;BME280;17546;42.674;23.284;2022-07-18T07:00:11;95468.16;;;30.77;19.45
30819;BME280;17546;42.674;23.284;2022-07-18T07:02:46;95466.72;;;30.88;18.88
30819;BME280;17546;42.674;23.284;2022-07-18T07:05:13;95463.53;;;30.60;19.68
30819;BME280;17546;42.674;23.284;2022-07-18T07:07:39;95456.50;;;30.85;19.83
30819;BME280;17546;42.674;23.284;2022-07-18T07:10:05;95461.53;;;30.96;19.37
30819;BME280;17546;42.674;23.284;2022-07-18T07:12:41;95454.09;;;30.69;19.29
30819;BME280;17546;42.674;23.284;2022-07-18T07:15:07;95460.94;;;31.09;19.57
30819;BME280;17546;42.674;23.284;2022-07-18T07:17:32;95459.72;;;31.24;19.39
30819;BME280;17546;42.674;23.284;2022-07-18T07:19:58;95454.31;;;30.95;18.84
30819;BME280;17546;42.674;23.284;2022-07-18T07:22:23;95452.81;;;30.94;18.84
30819;BME280;17546;42.674;23.284;2022-07-18T07:24:49;95457.84;;;31.29;19.86
30819;BME280;17546;42.674;23.284;2022-07-18T07:27:14;95462.28;;;31.08;18.41
30819;BME280;17546;42.674;23.284;2022-07-18T07:29:40;95461.28;;;30.92;19.37
30819;BME280;17546;42.674;23.284;2022-07-18T07:32:05;95449.63;;;31.12;18.82
30819;BME280;17546;42.674;23.284;2022-07-18T07:34:31;95465.69;;;31.76;19.18
30819;BME280;17546;42.674;23.284;2022-07-18T07:36:56;95458.59;;;31.29;18.43
30819;BME280;17546;42.674;23.284;2022-07-18T07:39:22;95451.50;;;31.19;18.67
30819;BME280;17546;42.674;23.284;2022-07-18T07:41:47;95454.41;;;30.85;18.40
30819;BME280;17546;42.674;23.284;2022-07-18T07:44:13;95454.59;;;31.23;18.86
30819;BME280;17546;42.674;23.284;2022-07-18T07:46:38;95456.09;;;31.24;18.23
30819;BME280;17546;42.674;23.284;2022-07-18T07:49:03;95457.13;;;31.52;17.65
30819;BME280;17546;42.674;23.284;2022-07-18T07:51:29;95451.38;;;31.40;17.59
30819;BME280;17546;42.674;23.284;2022-07-18T07:53:54;95459.97;;;31.52;17.34
30819;BME280;17546;42.674;23.284;2022-07-18T07:56:20;95464.09;;;31.61;17.38
30819;BME280;17546;42.674;23.284;2022-07-18T07:58:45;95458.00;;;31.66;17.49
30819;BME280;17546;42.674;23.284;2022-07-18T08:01:11;95469.44;;;31.55;18.11
30819;BME280;17546;42.674;23.284;2022-07-18T08:03:37;95466.03;;;32.17;16.97
30819;BME280;17546;42.674;23.284;2022-07-18T08:06:04;95458.91;;;32.18;17.48
30819;BME280;17546;42.674;23.284;2022-07-18T08:08:30;95448.84;;;32.43;17.36
30819;BME280;17546;42.674;23.284;2022-07-18T08:10:56;95467.16;;;32.61;17.42
30819;BME280;17546;42.674;23.284;2022-07-18T08:13:22;95463.44;;;32.98;17.45
30819;BME280;17546;42.674;23.284;2022-07-18T08:15:48;95462.88;;;33.13;16.08
30819;BME280;17546;42.674;23.284;2022-07-18T08:18:13;95456.31;;;33.25;17.84
30819;BME280;17546;42.674;23.284;2022-07-18T08:20:39;95461.34;;;33.52;16.63
30819;BME280;17546;42.674;23.284;2022-07-18T08:23:09;95462.97;;;33.69;17.02
30819;BME280;17546;42.674;23.284;2022-07-18T08:25:37;95462.28;;;33.29;15.92
30819;BME280;17546;42.674;23.284;2022-07-18T08:28:04;95460.47;;;32.96;15.91
30819;BME280;17546;42.674;23.284;2022-07-18T08:30:30;95464.94;;;32.48;15.96
30819;BME280;17546;42.674;23.284;2022-07-18T08:32:56;95467.88;;;32.62;15.45
30819;BME280;17546;42.674;23.284;2022-07-18T08:35:22;95468.06;;;32.78;15.58
30819;BME280;17546;42.674;23.284;2022-07-18T08:37:47;95456.69;;;32.80;15.62
30819;BME280;17546;42.674;23.284;2022-07-18T08:40:13;95465.75;;;32.62;15.43
30819;BME280;17546;42.674;23.284;2022-07-18T08:42:39;95457.63;;;32.70;15.50
30819;BME280;17546;42.674;23.284;2022-07-18T08:45:06;95456.72;;;33.59;16.49
30819;BME280;17546;42.674;23.284;2022-07-18T08:47:32;95458.50;;;34.21;16.79
30819;BME280;17546;42.674;23.284;2022-07-18T08:49:59;95453.97;;;34.46;15.66
30819;BME280;17546;42.674;23.284;2022-07-18T08:52:25;95462.47;;;34.44;15.46
30819;BME280;17546;42.674;23.284;2022-07-18T08:54:52;95458.22;;;34.45;15.94
30819;BME280;17546;42.674;23.284;2022-07-18T08:57:17;95455.03;;;34.39;15.77
30819;BME280;17546;42.674;23.284;2022-07-18T08:59:43;95452.81;;;34.96;16.97
30819;BME280;17546;42.674;23.284;2022-07-18T09:02:09;95458.84;;;35.48;16.80
30819;BME280;17546;42.674;23.284;2022-07-18T09:04:37;95454.38;;;34.54;16.41
30819;BME280;17546;42.674;23.284;2022-07-18T09:07:03;95454.94;;;35.26;16.85
30819;BME280;17546;42.674;23.284;2022-07-18T09:09:29;95446.31;;;34.80;17.26
30819;BME280;17546;42.674;23.284;2022-07-18T09:11:57;95446.38;;;35.59;16.68
30819;BME280;17546;42.674;23.284;2022-07-18T09:14:39;95449.47;;;35.64;15.80
30819;BME280;17546;42.674;23.284;2022-07-18T09:19:37;95448.75;;;34.42;16.33
30819;BME280;17546;42.674;23.284;2022-07-18T09:22:19;95452.13;;;35.28;16.51
30819;BME280;17546;42.674;23.284;2022-07-18T09:24:57;95455.19;;;33.58;17.56
30819;BME280;17546;42.674;23.284;2022-07-18T09:27:35;95454.38;;;33.83;17.52
30819;BME280;17546;42.674;23.284;2022-07-18T09:30:20;95448.94;;;33.75;18.56
30819;BME280;17546;42.674;23.284;2022-07-18T09:32:49;95456.47;;;34.67;18.00
30819;BME280;17546;42.674;23.284;2022-07-18T09:35:22;95448.09;;;35.03;17.75
30819;BME280;17546;42.674;23.284;2022-07-18T09:38:08;95451.88;;;34.92;16.62
30819;BME280;17546;42.674;23.284;2022-07-18T09:40:35;95445.63;;;35.43;17.73
30819;BME280;17546;42.674;23.284;2022-07-18T09:43:03;95445.41;;;35.07;18.01
30819;BME280;17546;42.674;23.284;2022-07-18T09:45:41;95437.56;;;35.39;17.11
30819;BME280;17546;42.674;23.284;2022-07-18T09:48:08;95450.47;;;35.54;17.03
30819;BME280;17546;42.674;23.284;2022-07-18T09:50:53;95447.03;;;35.90;17.73
30819;BME280;17546;42.674;23.284;2022-07-18T09:55:56;95443.81;;;36.67;17.17
30819;BME280;17546;42.674;23.284;2022-07-18T09:58:24;95442.47;;;36.70;16.36
30819;BME280;17546;42.674;23.284;2022-07-18T10:00:50;95447.91;;;36.98;16.66
30819;BME280;17546;42.674;23.284;2022-07-18T10:03:18;95440.06;;;37.18;16.58
30819;BME280;17546;42.674;23.284;2022-07-18T10:05:45;95430.94;;;36.70;15.67
30819;BME280;17546;42.674;23.284;2022-07-18T10:08:13;95436.88;;;36.92;15.82
30819;BME280;17546;42.674;23.284;2022-07-18T10:10:40;95427.47;;;36.56;16.21
30819;BME280;17546;42.674;23.284;2022-07-18T10:13:07;95444.06;;;36.73;15.64
30819;BME280;17546;42.674;23.284;2022-07-18T10:15:38;95424.59;;;36.56;15.66
30819;BME280;17546;42.674;23.284;2022-07-18T10:18:07;95427.06;;;35.62;16.02
30819;BME280;17546;42.674;23.284;2022-07-18T10:20:37;95418.38;;;36.46;17.25
30819;BME280;17546;42.674;23.284;2022-07-18T10:25:41;95415.69;;;36.50;15.34
30819;BME280;17546;42.674;23.284;2022-07-18T10:28:09;95412.53;;;36.79;16.78
30819;BME280;17546;42.674;23.284;2022-07-18T10:30:44;95411.38;;;36.51;16.41
30819;BME280;17546;42.674;23.284;2022-07-18T10:36:09;95410.97;;;36.40;17.47
30819;BME280;17546;42.674;23.284;2022-07-18T10:38:36;95405.03;;;36.54;16.94
30819;BME280;17546;42.674;23.284;2022-07-18T10:41:10;95398.13;;;36.79;17.90
30819;BME280;17546;42.674;23.284;2022-07-18T10:43:39;95393.59;;;36.05;16.43
30819;BME280;17546;42.674;23.284;2022-07-18T10:46:06;95391.00;;;35.77;17.04
30819;BME280;17546;42.674;23.284;2022-07-18T10:51:07;95392.44;;;36.46;17.86
30819;BME280;17546;42.674;23.284;2022-07-18T10:59:14;95386.44;;;35.72;17.25
30819;BME280;17546;42.674;23.284;2022-07-18T11:01:48;95386.50;;;35.90;17.38
30819;BME280;17546;42.674;23.284;2022-07-18T11:04:28;95386.97;;;36.18;17.29
30819;BME280;17546;42.674;23.284;2022-07-18T11:07:03;95374.06;;;36.37;18.15
30819;BME280;17546;42.674;23.284;2022-07-18T11:15:14;95368.00;;;35.13;17.87
30819;BME280;17546;42.674;23.284;2022-07-18T11:17:59;95367.50;;;34.12;18.50
30819;BME280;17546;42.674;23.284;2022-07-18T11:20:33;95367.59;;;34.14;18.44
30819;BME280;17546;42.674;23.284;2022-07-18T11:23:17;95363.25;;;34.43;18.55
30819;BME280;17546;42.674;23.284;2022-07-18T11:25:45;95368.34;;;34.74;18.77
30819;BME280;17546;42.674;23.284;2022-07-18T11:28:11;95369.69;;;34.27;18.67
30819;BME280;17546;42.674;23.284;2022-07-18T11:30:38;95366.59;;;34.98;19.35
30819;BME280;17546;42.674;23.284;2022-07-18T11:33:05;95366.59;;;35.46;19.10
30819;BME280;17546;42.674;23.284;2022-07-18T11:35:31;95362.81;;;35.26;18.01
30819;BME280;17546;42.674;23.284;2022-07-18T11:37:56;95366.59;;;34.83;17.83
30819;BME280;17546;42.674;23.284;2022-07-18T11:40:22;95361.72;;;35.17;18.76
30819;BME280;17546;42.674;23.284;2022-07-18T11:42:49;95355.47;;;34.91;17.81
30819;BME280;17546;42.674;23.284;2022-07-18T11:45:16;95347.41;;;33.84;18.80
30819;BME280;17546;42.674;23.284;2022-07-18T11:47:49;95346.88;;;33.88;18.78
30819;BME280;17546;42.674;23.284;2022-07-18T11:50:16;95348.97;;;34.90;18.85
30819;BME280;17546;42.674;23.284;2022-07-18T11:52:43;95349.31;;;34.83;18.22
30819;BME280;17546;42.674;23.284;2022-07-18T11:55:11;95346.16;;;33.87;18.67
30819;BME280;17546;42.674;23.284;2022-07-18T11:57:37;95345.19;;;34.26;18.66
30819;BME280;17546;42.674;23.284;2022-07-18T12:00:14;95347.38;;;34.12;18.69
30819;BME280;17546;42.674;23.284;2022-07-18T12:03:12;95335.94;;;34.28;18.99
30819;BME280;17546;42.674;23.284;2022-07-18T12:05:46;95331.94;;;33.34;19.58
30819;BME280;17546;42.674;23.284;2022-07-18T12:08:33;95328.94;;;34.47;19.28
30819;BME280;17546;42.674;23.284;2022-07-18T12:11:17;95333.81;;;34.74;19.15
30819;BME280;17546;42.674;23.284;2022-07-18T12:16:39;95326.28;;;35.46;17.67
30819;BME280;17546;42.674;23.284;2022-07-18T12:19:15;95328.53;;;35.82;18.45
30819;BME280;17546;42.674;23.284;2022-07-18T12:22:09;95328.63;;;36.02;18.03
30819;BME280;17546;42.674;23.284;2022-07-18T12:29:59;95320.66;;;36.18;16.74
30819;BME280;17546;42.674;23.284;2022-07-18T12:32:38;95312.09;;;36.20;17.58
30819;BME280;17546;42.674;23.284;2022-07-18T12:35:10;95309.34;;;36.42;17.85
30819;BME280;17546;42.674;23.284;2022-07-18T12:37:36;95315.00;;;35.68;17.19
30819;BME280;17546;42.674;23.284;2022-07-18T12:40:07;95306.41;;;36.22;17.21
30819;BME280;17546;42.674;23.284;2022-07-18T12:42:38;95313.47;;;36.55;16.82
30819;BME280;17546;42.674;23.284;2022-07-18T12:45:04;95309.94;;;36.56;17.57
30819;BME280;17546;42.674;23.284;2022-07-18T12:47:30;95305.25;;;36.65;17.50
30819;BME280;17546;42.674;23.284;2022-07-18T12:49:56;95304.94;;;36.21;17.90
30819;BME280;17546;42.674;23.284;2022-07-18T12:52:22;95307.25;;;35.39;18.60
30819;BME280;17546;42.674;23.284;2022-07-18T12:54:48;95308.31;;;34.66;19.07
30819;BME280;17546;42.674;23.284;2022-07-18T12:57:14;95308.09;;;34.94;18.86
30819;BME280;17546;42.674;23.284;2022-07-18T12:59:41;95305.53;;;34.68;19.36
30819;BME280;17546;42.674;23.284;2022-07-18T13:02:06;95298.72;;;35.09;19.08
30819;BME280;17546;42.674;23.284;2022-07-18T13:04:32;95301.59;;;35.09;19.16
30819;BME280;17546;42.674;23.284;2022-07-18T13:06:57;95308.03;;;34.30;19.80
30819;BME280;17546;42.674;23.284;2022-07-18T13:09:23;95296.81;;;34.66;20.52
30819;BME280;17546;42.674;23.284;2022-07-18T13:11:48;95293.00;;;34.77;19.64
30819;BME280;17546;42.674;23.284;2022-07-18T13:14:15;95300.84;;;34.61;19.72
30819;BME280;17546;42.674;23.284;2022-07-18T13:16:42;95310.06;;;34.89;20.97
30819;BME280;17546;42.674;23.284;2022-07-18T13:19:11;95303.00;;;35.24;19.55
30819;BME280;17546;42.674;23.284;2022-07-18T13:21:36;95296.25;;;34.24;19.62
30819;BME280;17546;42.674;23.284;2022-07-18T13:24:02;95295.19;;;34.63;19.71